createdAt,value
2022-12-25T00:04:32.805Z,101328.53
2022-12-25T00:09:36.581Z,101333.69
2022-12-25T00:14:40.471Z,101326.75
2022-12-25T00:19:45.581Z,101337.88
2022-12-25T00:24:49.725Z,101334.66
2022-12-25T00:29:53.477Z,101333.06
2022-12-25T00:34:58.595Z,101323.75
2022-12-25T00:40:02.330Z,101316.81
2022-12-25T00:45:06.790Z,101321.97
2022-12-25T00:50:12.410Z,101316.62
2022-12-25T00:55:16.323Z,101312.34
2022-12-25T01:00:20.515Z,101297.72
2022-12-25T01:05:25.645Z,101300.41
2022-12-25T01:10:29.379Z,101315.03
2022-12-25T01:15:33.300Z,101310.59
2022-12-25T01:20:38.424Z,101315.03
2022-12-25T01:25:42.291Z,101316.13
2022-12-25T01:30:49.843Z,101326.34
2022-12-25T01:35:55.009Z,101336.03
2022-12-25T01:40:58.746Z,101326.62
2022-12-25T01:46:03.880Z,101337.91
2022-12-25T01:51:24.385Z,101345.00
2022-12-25T01:56:30.247Z,101346.81
2022-12-25T02:01:34.311Z,101361.66
2022-12-25T02:06:39.437Z,101362.78
2022-12-25T02:11:58.396Z,101374.78
2022-12-25T02:17:08.447Z,101373.97
2022-12-25T02:22:22.548Z,101376.44
2022-12-25T02:28:01.273Z,101368.97
2022-12-25T02:33:28.264Z,101360.38
2022-12-25T02:38:34.990Z,101355.31
2022-12-25T02:44:00.068Z,101340.34
2022-12-25T02:49:26.818Z,101341.84
2022-12-25T02:54:52.721Z,101331.53
2022-12-25T03:00:18.500Z,101315.97
2022-12-25T03:05:43.961Z,101294.28
2022-12-25T03:11:12.693Z,101286.81
2022-12-25T03:16:34.640Z,101277.00
2022-12-25T03:21:57.573Z,101271.66
2022-12-25T03:27:01.374Z,101264.66
2022-12-25T03:32:17.144Z,101262.66
2022-12-25T03:37:48.543Z,101266.88
2022-12-25T03:43:32.203Z,101269.22
2022-12-25T03:48:57.359Z,101267.75
2022-12-25T03:54:24.718Z,101266.34
2022-12-25T03:59:46.100Z,101275.06
2022-12-25T04:05:22.313Z,101260.81
2022-12-25T04:10:45.029Z,101262.81
2022-12-25T04:16:06.650Z,101254.97
2022-12-25T04:21:28.006Z,101246.47
2022-12-25T04:26:50.727Z,101258.53
2022-12-25T04:32:11.969Z,101262.25
2022-12-25T04:37:15.813Z,101260.66
2022-12-25T04:42:20.956Z,101256.69
2022-12-25T04:47:24.673Z,101254.91
2022-12-25T04:52:28.521Z,101242.03
2022-12-25T04:57:33.700Z,101249.66
2022-12-25T05:02:37.693Z,101239.28
2022-12-25T05:07:41.505Z,101246.91
2022-12-25T05:12:46.652Z,101229.94
2022-12-25T05:17:51.781Z,101226.37
2022-12-25T05:22:55.481Z,101226.66
2022-12-25T05:28:00.688Z,101207.22
2022-12-25T05:33:04.778Z,101192.66
2022-12-25T05:38:09.376Z,101187.50
2022-12-25T05:43:14.496Z,101200.03
2022-12-25T05:48:18.451Z,101194.94
2022-12-25T05:53:22.210Z,101196.81
2022-12-25T05:58:27.280Z,101192.72
2022-12-25T06:03:31.217Z,101175.56
2022-12-25T06:08:35.414Z,101165.41
2022-12-25T06:13:40.665Z,101173.09
2022-12-25T06:18:47.031Z,101155.91
2022-12-25T06:23:50.797Z,101139.47
2022-12-25T06:28:55.976Z,101132.78
2022-12-25T06:33:59.700Z,101134.47
2022-12-25T06:39:03.497Z,101115.00
2022-12-25T06:44:08.614Z,101117.31
2022-12-25T06:49:12.376Z,101115.81
2022-12-25T06:54:16.221Z,101088.44
2022-12-25T06:59:21.409Z,101085.91
2022-12-25T07:04:32.044Z,101081.66
2022-12-25T07:09:35.917Z,101084.00
2022-12-25T07:14:41.358Z,101091.00
2022-12-25T07:19:45.660Z,101110.09
2022-12-25T07:24:49.408Z,101121.37
2022-12-25T07:29:54.542Z,101122.38
2022-12-25T07:34:58.319Z,101118.72
2022-12-25T07:40:02.135Z,101088.03
2022-12-25T07:45:08.123Z,101107.94
2022-12-25T07:50:12.188Z,101124.47
2022-12-25T07:55:16.028Z,101126.25
2022-12-25T08:00:21.896Z,101146.97
2022-12-25T08:05:25.625Z,101162.44
2022-12-25T08:10:29.361Z,101148.66
2022-12-25T08:15:34.463Z,101165.09
2022-12-25T08:20:38.625Z,101167.75
2022-12-25T08:25:42.373Z,101169.31
2022-12-25T08:30:47.506Z,101159.06
2022-12-25T08:35:51.293Z,101157.44
2022-12-25T08:40:55.065Z,101169.19
2022-12-25T08:46:00.236Z,101162.34
2022-12-25T08:51:06.058Z,101174.62
2022-12-25T08:56:10.020Z,101159.25
2022-12-25T09:01:15.420Z,101152.19
2022-12-25T09:06:19.344Z,101144.56
2022-12-25T09:11:24.107Z,101138.41
2022-12-25T09:16:29.367Z,101160.84
2022-12-25T09:21:33.191Z,101174.62
2022-12-25T09:26:38.345Z,101153.81
2022-12-25T09:31:43.628Z,101170.03
2022-12-25T09:36:47.435Z,101165.03
2022-12-25T09:41:56.896Z,101145.13
2022-12-25T09:47:06.251Z,101150.59
2022-12-25T09:52:15.903Z,101139.66
2022-12-25T09:57:19.728Z,101122.56
2022-12-25T10:02:40.567Z,101105.75
2022-12-25T10:07:55.360Z,101086.75
2022-12-25T10:13:09.752Z,101086.59
2022-12-25T10:18:39.584Z,101083.16
2022-12-25T10:23:47.893Z,101096.03
2022-12-25T10:28:57.183Z,101121.69
2022-12-25T10:34:03.141Z,101117.97
2022-12-25T10:39:06.870Z,101116.09
2022-12-25T10:44:15.772Z,101098.28
2022-12-25T10:49:22.983Z,101087.06
2022-12-25T10:54:29.235Z,101081.28
2022-12-25T10:59:36.705Z,101069.53
2022-12-25T11:04:42.030Z,101029.94
2022-12-25T11:09:51.076Z,101037.75
2022-12-25T11:14:56.641Z,101031.78
2022-12-25T11:20:03.537Z,101021.38
2022-12-25T11:25:14.153Z,101013.59
2022-12-25T11:30:18.364Z,100993.41
2022-12-25T11:35:29.298Z,101003.22
2022-12-25T11:40:45.841Z,101003.22
2022-12-25T11:45:54.944Z,100997.28
2022-12-25T11:51:02.590Z,100998.66
2022-12-25T11:56:10.835Z,100984.88
2022-12-25T12:01:18.367Z,100984.28
2022-12-25T12:06:30.656Z,100983.41
2022-12-25T12:11:38.994Z,100965.19
2022-12-25T12:16:42.853Z,100958.87
2022-12-25T12:21:50.634Z,100950.28
2022-12-25T12:27:03.418Z,100938.72
2022-12-25T12:32:20.396Z,100943.88
2022-12-25T12:37:31.360Z,100943.88
2022-12-25T12:42:40.400Z,100923.72
2022-12-25T12:47:47.699Z,100922.91
2022-12-25T12:52:53.009Z,100931.59
2022-12-25T12:58:00.067Z,100917.44
2022-12-25T13:03:24.695Z,100929.13
2022-12-25T13:08:43.659Z,100933.41
2022-12-25T13:13:49.605Z,100909.47
2022-12-25T13:18:55.108Z,100903.78
2022-12-25T13:24:02.223Z,100886.59
2022-12-25T13:29:11.341Z,100876.97
2022-12-25T13:34:24.388Z,100863.47
2022-12-25T13:39:29.752Z,100868.72
2022-12-25T13:44:48.398Z,100861.13
2022-12-25T13:49:54.225Z,100861.78
2022-12-25T13:55:02.356Z,100867.75
2022-12-25T14:00:08.343Z,100855.72
2022-12-25T14:05:31.311Z,100837.75
2022-12-25T14:10:40.359Z,100831.75
2022-12-25T14:15:47.957Z,100839.50
2022-12-25T14:21:01.094Z,100857.66
2022-12-25T14:26:06.485Z,100874.03
2022-12-25T14:31:13.315Z,100868.03
2022-12-25T14:36:17.372Z,100871.44
2022-12-25T14:41:33.534Z,100872.56
2022-12-25T14:46:37.820Z,100865.03
2022-12-25T14:51:44.090Z,100850.50
2022-12-25T14:56:50.834Z,100847.19
2022-12-25T15:01:58.404Z,100855.72
2022-12-25T15:07:07.304Z,100848.84
2022-12-25T15:12:12.552Z,100839.44
2022-12-25T15:17:26.315Z,100849.78
2022-12-25T15:22:47.786Z,100848.94
2022-12-25T15:27:55.484Z,100842.06
2022-12-25T15:32:59.206Z,100841.19
2022-12-25T15:38:02.997Z,100842.03
2022-12-25T15:43:20.862Z,100841.94
2022-12-25T15:48:26.201Z,100837.50
2022-12-25T15:53:29.912Z,100834.09
2022-12-25T15:58:35.053Z,100824.59
2022-12-25T16:03:38.868Z,100825.44
2022-12-25T16:08:43.314Z,100828.81
2022-12-25T16:13:48.464Z,100833.19
2022-12-25T16:18:52.199Z,100821.00
2022-12-25T16:23:55.942Z,100814.88
2022-12-25T16:29:06.763Z,100800.94
2022-12-25T16:34:11.290Z,100817.25
2022-12-25T16:39:15.046Z,100809.38
2022-12-25T16:44:20.184Z,100799.03
2022-12-25T16:49:23.976Z,100793.88
2022-12-25T16:54:27.791Z,100789.28
2022-12-25T16:59:34.646Z,100804.53
2022-12-25T17:04:39.375Z,100808.75
2022-12-25T17:09:44.681Z,100812.12
2022-12-25T17:14:49.880Z,100810.22
2022-12-25T17:19:53.588Z,100813.75
2022-12-25T17:24:57.358Z,100803.66
2022-12-25T17:30:02.487Z,100799.37
2022-12-25T17:35:06.996Z,100798.50
2022-12-25T17:40:11.484Z,100818.91
2022-12-25T17:45:17.594Z,100812.97
2022-12-25T17:50:21.532Z,100809.41
2022-12-25T17:55:25.257Z,100817.31
2022-12-25T18:00:30.407Z,100800.13
2022-12-25T18:05:36.586Z,100789.78
2022-12-25T18:10:42.919Z,100798.12
2022-12-25T18:15:48.057Z,100805.22
2022-12-25T18:20:54.373Z,100818.69
2022-12-25T18:26:01.508Z,100827.16
2022-12-25T18:31:10.350Z,100834.84
2022-12-25T18:36:16.310Z,100838.81
2022-12-25T18:41:20.942Z,100844.13
2022-12-25T18:46:27.916Z,100831.34
2022-12-25T18:51:36.840Z,100817.53
2022-12-25T18:56:41.024Z,100831.31
2022-12-25T19:01:47.329Z,100840.06
2022-12-25T19:06:52.348Z,100816.06
2022-12-25T19:11:56.781Z,100804.91
2022-12-25T19:17:01.915Z,100805.78
2022-12-25T19:22:07.292Z,100803.66
2022-12-25T19:27:11.188Z,100791.72
2022-12-25T19:32:16.291Z,100812.38
2022-12-25T19:37:20.080Z,100833.66
2022-12-25T19:42:23.835Z,100833.78
2022-12-25T19:47:28.985Z,100825.28
2022-12-25T19:52:32.820Z,100814.13
2022-12-25T19:57:36.565Z,100817.53
2022-12-25T20:02:41.837Z,100834.91
2022-12-25T20:07:45.702Z,100846.03
2022-12-25T20:12:49.458Z,100845.72
2022-12-25T20:17:55.396Z,100852.50
2022-12-25T20:22:59.189Z,100859.06
2022-12-25T20:28:03.121Z,100862.75
2022-12-25T20:33:08.273Z,100866.22
2022-12-25T20:38:12.097Z,100861.94
2022-12-25T20:43:15.863Z,100857.84
2022-12-25T20:48:21.050Z,100858.62
2022-12-25T20:53:26.282Z,100848.25
2022-12-25T20:58:30.242Z,100852.44
2022-12-25T21:03:36.289Z,100851.72
2022-12-25T21:08:41.001Z,100864.75
2022-12-25T21:13:46.718Z,100866.34
2022-12-25T21:18:54.017Z,100888.84
2022-12-25T21:23:57.996Z,100880.38
2022-12-25T21:29:03.361Z,100901.09
2022-12-25T21:34:08.534Z,100911.41
2022-12-25T21:39:12.510Z,100915.69
2022-12-25T21:44:16.331Z,100920.72
2022-12-25T21:49:35.871Z,100928.50
2022-12-25T21:54:39.629Z,100931.19
2022-12-25T21:59:43.358Z,100920.72
2022-12-25T22:04:48.450Z,100924.16
2022-12-25T22:09:52.708Z,100918.13
2022-12-25T22:15:02.574Z,100924.66
2022-12-25T22:20:11.678Z,100906.91
2022-12-25T22:25:17.254Z,100926.81
2022-12-25T22:30:23.204Z,100921.84
2022-12-25T22:35:28.298Z,100919.16
2022-12-25T22:40:32.084Z,100926.75
2022-12-25T22:45:35.880Z,100920.88
2022-12-25T22:50:41.033Z,100917.47
2022-12-25T22:55:46.814Z,100915.56
2022-12-25T23:00:50.577Z,100919.56
2022-12-25T23:05:56.491Z,100931.44
2022-12-25T23:11:03.295Z,100923.53
2022-12-25T23:16:13.610Z,100914.59
2022-12-25T23:21:42.544Z,100919.84
2022-12-25T23:26:46.304Z,100919.59
2022-12-25T23:31:53.554Z,100934.75
2022-12-25T23:36:58.898Z,100926.38
2022-12-25T23:42:02.848Z,100937.56
2022-12-25T23:47:06.733Z,100951.34
2022-12-25T23:52:13.941Z,100963.25
2022-12-25T23:57:17.714Z,100965.84
